Main page
METAR-TAF:

METAR-TAF

Airports :

Rouen Airport

Rouen, France

latitude: 49-23N, longitude: 001-11E, elevation: 157 m

Current weather observation

The report was made 21 minutes ago, at 10:00 UTC
Wind 14 kt from the East/Northeast
Temperature 2°C
Humidity 80%
Pressure 1017 hPa
Visibility 10 km or more
Broken clouds at a height of 1400 ft

METAR: LFOP 191000Z AUTO 06014KT 9999 BKN014 02/M01 Q1017 BECMG BKN020

Time: 11:21 (10:21 UTC)

Forecast

The report was made 5 hours and 21 minutes ago, at 05:00 UTC
Forecast valid from 19 at 06 UTC to 20 at 06 UTC
Wind 12 kt from the Northeast
Visibility 10 km or more
no clouds below 1500 m and no cumulonimbus
Becoming
from 19 at 08 UTC to 19 at 10 UTC
Overcast at a height of 1000 ft
Becoming
from 19 at 11 UTC to 19 at 13 UTC
Broken clouds at a height of 2000 ft
Probability 40%
from 20 at 00 UTC to 20 at 06 UTC
Visibility: 1200 m
Overcast at a height of 500 ft
snow

TAF: LFOP 190500Z 1906/2006 04012KT CAVOK BECMG 1908/1910 OVC010 BECMG 1911/1913 BKN020 PROB40 2000/2006 1200 SN OVC005

Weather observations and forecasts of more than 4000 airports (METAR and TAF reports).

The available stations are represented by yellow and red dots on the map.

Hover mouse over dot to see the name of the station.

Then click to see weather observations and forecasts.

To change the map : click on the green buttons with a black cross to zoom in, on the green button with a dash to zoom out, or on the green arrows for adjacent maps.


METAR-TAF: